Freeport, The Bahamas
Current Conditions -  °F | °C
As of 9:00 PM on Tuesday 25 Nov 2014 (Local Time) from MYGF Reporting Station
Broken Clouds Broken Clouds  
Wind Chill: 81°   Ceiling: 1500
Heat Index: 88°   Visibility: 6mi
Dew Point: 79°   Wind: 8mph
Humidity: 94%   Direction: 180°S
Pressure: 29.96"   Gusts: NA
Location:  26.54°N, 78.64°W
Report Text: MYGF 260100Z 18007KT 9000 BKN015 27/26 A2996
Loading
Personal Weather Stations






























Interactive Weather Map New forecast layout! Learn more

10-Day Weather Forecast

Advertisements
Track Severe Weather on mobile